createdAt,value
2023-04-01T00:00:29.412Z,78.41
2023-04-01T00:01:29.374Z,78.31
2023-04-01T00:02:29.445Z,77.80
2023-04-01T00:03:29.518Z,77.39
2023-04-01T00:04:29.399Z,77.90
2023-04-01T00:05:29.333Z,77.59
2023-04-01T00:06:29.321Z,77.90
2023-04-01T00:07:30.656Z,78.20
2023-04-01T00:08:29.304Z,77.70
2023-04-01T00:09:29.832Z,77.49
2023-04-01T00:10:29.280Z,77.29
2023-04-01T00:11:29.250Z,77.08
2023-04-01T00:12:29.250Z,76.88
2023-04-01T00:13:29.239Z,76.88
2023-04-01T00:14:29.211Z,77.29
2023-04-01T00:15:29.219Z,77.19
2023-04-01T00:16:29.221Z,77.08
2023-04-01T00:17:29.226Z,76.98
2023-04-01T00:18:29.183Z,77.29
2023-04-01T00:19:29.134Z,77.19
2023-04-01T00:20:29.132Z,77.90
2023-04-01T00:21:29.118Z,78.31
2023-04-01T00:22:29.099Z,78.11
2023-04-01T00:23:29.107Z,78.00
2023-04-01T00:24:29.077Z,78.00
2023-04-01T00:25:29.068Z,78.52
2023-04-01T00:26:29.044Z,77.59
2023-04-01T00:27:29.071Z,77.49
2023-04-01T00:28:29.054Z,77.49
2023-04-01T00:29:29.012Z,77.29
2023-04-01T00:30:29.005Z,77.49
2023-04-01T00:31:28.987Z,78.20
2023-04-01T00:32:28.985Z,78.41
2023-04-01T00:33:28.974Z,78.72
2023-04-01T00:34:28.946Z,78.52
2023-04-01T00:35:28.940Z,77.83
2023-04-01T00:36:28.957Z,77.94
2023-04-01T00:37:28.902Z,78.04
2023-04-01T00:38:28.921Z,78.24
2023-04-01T00:39:28.878Z,78.55
2023-04-01T00:40:28.869Z,78.96
2023-04-01T00:41:28.849Z,79.68
2023-04-01T00:42:28.835Z,78.86
2023-04-01T00:43:28.840Z,78.45
2023-04-01T00:44:28.814Z,78.86
2023-04-01T00:45:28.797Z,79.68
2023-04-01T00:46:28.960Z,79.68
2023-04-01T00:47:28.795Z,78.86
2023-04-01T00:48:28.778Z,78.96
2023-04-01T00:49:28.756Z,79.47
2023-04-01T00:50:28.738Z,79.68
2023-04-01T00:51:28.717Z,79.37
2023-04-01T00:52:28.706Z,78.65
2023-04-01T00:53:28.722Z,78.96
2023-04-01T00:54:28.685Z,78.45
2023-04-01T00:55:28.672Z,78.45
2023-04-01T00:56:28.660Z,78.34
2023-04-01T00:57:28.744Z,77.94
2023-04-01T00:58:28.631Z,78.04
2023-04-01T00:59:28.625Z,78.55
2023-04-01T01:00:28.600Z,78.14
2023-04-01T01:01:28.609Z,78.24
2023-04-01T01:02:28.660Z,78.55
2023-04-01T01:03:28.552Z,77.76
2023-04-01T01:04:28.566Z,78.45
2023-04-01T01:05:29.396Z,78.59
2023-04-01T01:06:28.521Z,78.04
2023-04-01T01:07:28.514Z,77.94
2023-04-01T01:08:28.499Z,77.83
2023-04-01T01:09:28.500Z,77.42
2023-04-01T01:10:28.470Z,77.83
2023-04-01T01:11:33.575Z,78.04
2023-04-01T01:12:29.447Z,78.45
2023-04-01T01:13:28.426Z,78.34
2023-04-01T01:14:28.439Z,77.83
2023-04-01T01:15:28.401Z,77.94
2023-04-01T01:16:28.455Z,78.96
2023-04-01T01:17:28.402Z,78.45
2023-04-01T01:18:28.373Z,78.04
2023-04-01T01:19:28.365Z,78.34
2023-04-01T01:20:28.339Z,78.14
2023-04-01T01:21:28.306Z,78.04
2023-04-01T01:22:28.307Z,77.83
2023-04-01T01:23:28.294Z,77.83
2023-04-01T01:24:28.300Z,78.24
2023-04-01T01:25:28.271Z,78.24
2023-04-01T01:26:28.259Z,78.24
2023-04-01T01:27:28.237Z,78.34
2023-04-01T01:28:28.236Z,78.24
2023-04-01T01:29:28.234Z,77.94
2023-04-01T01:30:28.217Z,77.53
2023-04-01T01:31:28.245Z,77.53
2023-04-01T01:32:28.201Z,77.73
2023-04-01T01:33:28.160Z,77.94
2023-04-01T01:34:28.173Z,78.04
2023-04-01T01:35:28.136Z,78.14
2023-04-01T01:36:28.167Z,78.24
2023-04-01T01:37:28.113Z,78.04
2023-04-01T01:38:28.120Z,78.24
2023-04-01T01:39:28.116Z,78.55
2023-04-01T01:40:28.069Z,78.75
2023-04-01T01:41:28.061Z,78.69
2023-04-01T01:42:28.048Z,78.28
2023-04-01T01:43:28.035Z,78.89
2023-04-01T01:44:28.029Z,79.10
2023-04-01T01:45:28.020Z,79.20
2023-04-01T01:46:28.095Z,79.30
2023-04-01T01:47:27.992Z,79.50
2023-04-01T01:48:27.960Z,79.00
2023-04-01T01:49:27.972Z,79.00
2023-04-01T01:50:27.928Z,79.61
2023-04-01T01:51:27.917Z,79.61
2023-04-01T01:52:27.908Z,79.50
2023-04-01T01:53:27.885Z,80.02
2023-04-01T01:54:27.880Z,79.91
2023-04-01T01:55:27.881Z,79.71
2023-04-01T01:56:27.844Z,79.50
2023-04-01T01:57:27.878Z,79.50
2023-04-01T01:58:27.827Z,79.41
2023-04-01T01:59:27.806Z,78.49
2023-04-01T02:00:27.847Z,78.79
2023-04-01T02:01:27.812Z,78.89
2023-04-01T02:02:27.792Z,78.79
2023-04-01T02:03:27.755Z,78.89
2023-04-01T02:04:27.764Z,79.00
2023-04-01T02:05:27.751Z,79.41
2023-04-01T02:06:27.715Z,78.89
2023-04-01T02:07:27.694Z,78.49
2023-04-01T02:08:27.689Z,78.69
2023-04-01T02:09:27.662Z,78.79
2023-04-01T02:10:27.707Z,78.79
2023-04-01T02:11:27.650Z,78.69
2023-04-01T02:12:27.639Z,78.69
2023-04-01T02:13:27.620Z,78.69
2023-04-01T02:14:27.622Z,78.89
2023-04-01T02:15:27.610Z,78.69
2023-04-01T02:16:27.767Z,78.49
2023-04-01T02:17:27.711Z,78.17
2023-04-01T02:18:27.557Z,78.17
2023-04-01T02:19:27.553Z,77.56
2023-04-01T02:20:27.548Z,77.46
2023-04-01T02:21:27.506Z,77.46
2023-04-01T02:22:27.545Z,78.38
2023-04-01T02:23:27.487Z,78.69
2023-04-01T02:24:27.470Z,78.38
2023-04-01T02:25:27.481Z,78.17
2023-04-01T02:26:27.457Z,77.87
2023-04-01T02:27:27.424Z,77.36
2023-04-01T02:28:27.422Z,77.56
2023-04-01T02:29:27.393Z,77.76
2023-04-01T02:30:27.404Z,78.49
2023-04-01T02:31:27.467Z,78.28
2023-04-01T02:32:27.420Z,78.59
2023-04-01T02:33:27.344Z,78.59
2023-04-01T02:34:27.343Z,79.30
2023-04-01T02:35:27.366Z,79.20
2023-04-01T02:36:27.332Z,79.10
2023-04-01T02:37:27.295Z,79.50
2023-04-01T02:38:27.268Z,79.30
2023-04-01T02:39:27.260Z,79.91
2023-04-01T02:40:27.266Z,79.30
2023-04-01T02:41:27.237Z,78.79
2023-04-01T02:42:27.226Z,78.38
2023-04-01T02:43:27.216Z,78.69
2023-04-01T02:44:27.193Z,78.38
2023-04-01T02:45:27.199Z,79.00
2023-04-01T02:46:27.262Z,78.28
2023-04-01T02:47:27.245Z,78.69
2023-04-01T02:48:27.150Z,78.79
2023-04-01T02:49:27.129Z,79.00
2023-04-01T02:50:27.137Z,78.69
2023-04-01T02:51:27.113Z,79.30
2023-04-01T02:52:27.160Z,78.79
2023-04-01T02:53:27.078Z,78.69
2023-04-01T02:54:27.067Z,79.00
2023-04-01T02:55:27.081Z,80.33
2023-04-01T02:56:27.085Z,80.02
2023-04-01T02:57:27.113Z,79.75
2023-04-01T02:58:27.011Z,78.63
2023-04-01T02:59:27.000Z,78.72
2023-04-01T03:00:26.978Z,78.93
2023-04-01T03:01:27.047Z,79.24
2023-04-01T03:02:27.077Z,79.13
2023-04-01T03:03:27.006Z,79.24
2023-04-01T03:04:26.924Z,79.75
2023-04-01T03:05:26.924Z,79.91
2023-04-01T03:06:26.918Z,79.82
2023-04-01T03:07:26.887Z,80.12
2023-04-01T03:08:26.876Z,79.41
2023-04-01T03:09:26.886Z,79.54
2023-04-01T03:10:26.850Z,79.50
2023-04-01T03:11:26.865Z,79.75
2023-04-01T03:12:26.822Z,80.53
2023-04-01T03:13:26.814Z,79.96
2023-04-01T03:14:26.797Z,78.72
2023-04-01T03:15:26.782Z,78.93
2023-04-01T03:16:26.823Z,79.24
2023-04-01T03:17:26.785Z,79.96
2023-04-01T03:18:26.746Z,80.26
2023-04-01T03:19:26.742Z,80.26
2023-04-01T03:20:26.709Z,80.05
2023-04-01T03:21:26.722Z,80.46
2023-04-01T03:22:26.694Z,80.16
2023-04-01T03:23:26.678Z,80.46
2023-04-01T03:24:26.659Z,80.57
2023-04-01T03:25:26.655Z,79.96
2023-04-01T03:26:26.646Z,79.85
2023-04-01T03:27:26.622Z,79.64
2023-04-01T03:28:26.612Z,79.75
2023-04-01T03:29:26.590Z,79.64
2023-04-01T03:30:26.602Z,79.85
2023-04-01T03:31:26.656Z,79.96
2023-04-01T03:32:26.574Z,79.85
2023-04-01T03:33:26.546Z,79.44
2023-04-01T03:34:26.522Z,79.24
2023-04-01T03:35:26.528Z,79.24
2023-04-01T03:36:26.549Z,80.16
2023-04-01T03:37:26.479Z,78.21
2023-04-01T03:38:26.465Z,78.31
2023-04-01T03:39:26.463Z,78.21
2023-04-01T03:40:26.457Z,78.42
2023-04-01T03:41:26.431Z,78.83
2023-04-01T03:42:26.434Z,79.44
2023-04-01T03:43:26.400Z,79.03
2023-04-01T03:44:26.374Z,79.44
2023-04-01T03:45:26.384Z,79.64
2023-04-01T03:46:26.370Z,80.05
2023-04-01T03:47:26.380Z,80.05
2023-04-01T03:48:26.349Z,80.36
2023-04-01T03:49:26.316Z,80.26
2023-04-01T03:50:26.304Z,79.89
2023-04-01T03:51:26.304Z,80.40
2023-04-01T03:52:26.274Z,80.88
2023-04-01T03:53:26.260Z,81.08
2023-04-01T03:54:26.267Z,81.01
2023-04-01T03:55:26.225Z,81.22
2023-04-01T03:56:26.232Z,81.63
2023-04-01T03:57:26.224Z,82.04
2023-04-01T03:58:26.192Z,81.73
2023-04-01T03:59:26.176Z,82.04
2023-04-01T04:00:26.169Z,82.45
2023-04-01T04:01:26.197Z,82.14
2023-04-01T04:02:26.311Z,82.55
2023-04-01T04:03:26.247Z,82.76
2023-04-01T04:04:26.178Z,82.35
2023-04-01T04:05:26.100Z,82.65
2023-04-01T04:06:26.102Z,83.06
2023-04-01T04:07:26.077Z,82.96
2023-04-01T04:08:26.055Z,83.47
2023-04-01T04:09:26.049Z,83.06
2023-04-01T04:10:26.033Z,83.31
2023-04-01T04:11:26.037Z,82.39
2023-04-01T04:12:26.005Z,82.49
2023-04-01T04:13:25.997Z,83.41
2023-04-01T04:14:26.011Z,83.61
2023-04-01T04:15:25.961Z,83.31
2023-04-01T04:16:26.118Z,83.41
2023-04-01T04:17:25.937Z,83.20
2023-04-01T04:18:25.917Z,83.00
2023-04-01T04:19:25.930Z,82.90
2023-04-01T04:20:25.888Z,83.00
2023-04-01T04:21:25.966Z,84.03
2023-04-01T04:22:25.875Z,84.44
2023-04-01T04:23:25.854Z,83.92
2023-04-01T04:24:25.841Z,83.82
2023-04-01T04:25:25.828Z,84.03
2023-04-01T04:26:25.830Z,84.12
2023-04-01T04:27:25.809Z,83.10
2023-04-01T04:28:25.777Z,83.61
2023-04-01T04:29:25.771Z,83.61
2023-04-01T04:30:25.760Z,84.23
2023-04-01T04:31:25.793Z,84.23
2023-04-01T04:32:25.819Z,84.33
2023-04-01T04:33:25.716Z,84.12
2023-04-01T04:34:25.696Z,83.92
2023-04-01T04:35:25.698Z,84.12
2023-04-01T04:36:25.710Z,84.23
2023-04-01T04:37:25.663Z,84.44
2023-04-01T04:38:25.641Z,84.03
2023-04-01T04:39:25.630Z,84.12
2023-04-01T04:40:25.617Z,84.23
2023-04-01T04:41:25.621Z,83.92
2023-04-01T04:42:25.596Z,84.23
2023-04-01T04:43:25.600Z,84.44
2023-04-01T04:44:25.557Z,83.92
2023-04-01T04:45:25.549Z,83.92
2023-04-01T04:46:25.583Z,84.23
2023-04-01T04:47:25.621Z,84.23
2023-04-01T04:48:25.508Z,84.12
2023-04-01T04:49:25.508Z,83.31
2023-04-01T04:50:25.479Z,83.00
2023-04-01T04:51:25.491Z,82.90
2023-04-01T04:52:25.446Z,83.61
2023-04-01T04:53:25.437Z,83.92
2023-04-01T04:54:25.504Z,84.12
2023-04-01T04:55:25.414Z,84.23
2023-04-01T04:56:25.407Z,84.23
2023-04-01T04:57:25.456Z,84.03
2023-04-01T04:58:25.375Z,83.92
2023-04-01T04:59:25.361Z,83.61
2023-04-01T05:00:25.340Z,83.82
2023-04-01T05:01:25.428Z,83.92
2023-04-01T05:02:25.363Z,83.92
2023-04-01T05:03:25.483Z,83.82
2023-04-01T05:04:25.304Z,83.51
2023-04-01T05:05:25.281Z,83.82
2023-04-01T05:06:25.258Z,83.92
2023-04-01T05:07:25.259Z,83.10
2023-04-01T05:08:25.227Z,83.72
2023-04-01T05:09:25.242Z,83.61
2023-04-01T05:10:25.196Z,83.41
2023-04-01T05:11:25.186Z,83.31
2023-04-01T05:12:25.188Z,83.61
2023-04-01T05:13:25.163Z,83.61
2023-04-01T05:14:25.213Z,83.82
2023-04-01T05:15:25.173Z,84.53
2023-04-01T05:16:25.255Z,84.53
2023-04-01T05:17:25.129Z,84.53
2023-04-01T05:18:25.099Z,83.92
2023-04-01T05:19:25.076Z,83.31
2023-04-01T05:20:25.059Z,83.92
2023-04-01T05:21:25.046Z,83.92
2023-04-01T05:22:25.049Z,83.92
2023-04-01T05:23:25.017Z,84.12
2023-04-01T05:24:32.214Z,84.23
2023-04-01T05:25:25.001Z,85.25
2023-04-01T05:26:24.976Z,85.39
2023-04-01T05:27:24.976Z,84.27
2023-04-01T05:28:24.944Z,84.47
2023-04-01T05:29:24.948Z,84.78
2023-04-01T05:30:24.926Z,84.53
2023-04-01T05:31:25.155Z,84.03
2023-04-01T05:32:24.935Z,84.53
2023-04-01T05:33:24.886Z,84.44
2023-04-01T05:34:24.868Z,84.33
2023-04-01T05:35:24.924Z,84.03
2023-04-01T05:36:24.847Z,84.23
2023-04-01T05:37:24.844Z,84.44
2023-04-01T05:38:24.822Z,83.72
2023-04-01T05:39:24.819Z,84.23
2023-04-01T05:40:24.803Z,84.03
2023-04-01T05:41:24.786Z,84.33
2023-04-01T05:42:24.775Z,84.23
2023-04-01T05:43:24.750Z,84.44
2023-04-01T05:44:24.739Z,84.23
2023-04-01T05:45:24.730Z,84.03
2023-04-01T05:46:24.770Z,83.51
2023-04-01T05:47:24.752Z,83.72
2023-04-01T05:48:24.686Z,84.23
2023-04-01T05:49:26.291Z,84.64
2023-04-01T05:50:24.661Z,84.53
2023-04-01T05:51:24.654Z,84.53
2023-04-01T05:52:24.656Z,84.44
2023-04-01T05:53:24.619Z,84.53
2023-04-01T05:54:24.608Z,84.44
2023-04-01T05:55:24.605Z,84.33
2023-04-01T05:56:24.572Z,84.19
2023-04-01T05:57:24.639Z,84.09
2023-04-01T05:58:24.541Z,83.37
2023-04-01T05:59:24.541Z,83.47
2023-04-01T06:00:24.541Z,83.58
2023-04-01T06:01:24.522Z,83.68
2023-04-01T06:02:24.628Z,83.88
2023-04-01T06:03:24.875Z,84.09
2023-04-01T06:04:24.545Z,84.19
2023-04-01T06:05:24.506Z,84.39
2023-04-01T06:06:24.425Z,84.50
2023-04-01T06:07:24.423Z,84.70
2023-04-01T06:08:24.431Z,84.91
2023-04-01T06:09:24.398Z,85.22
2023-04-01T06:10:24.375Z,84.70
2023-04-01T06:11:24.370Z,84.09
2023-04-01T06:12:24.356Z,83.88
2023-04-01T06:13:24.355Z,83.88
2023-04-01T06:14:24.332Z,83.98
2023-04-01T06:15:24.304Z,84.50
2023-04-01T06:16:24.342Z,84.80
2023-04-01T06:17:24.321Z,84.29
2023-04-01T06:18:24.306Z,84.29
2023-04-01T06:19:24.257Z,83.78
2023-04-01T06:20:24.260Z,83.06
2023-04-01T06:21:24.244Z,83.06
2023-04-01T06:22:24.225Z,83.78
2023-04-01T06:23:24.219Z,83.47
2023-04-01T06:24:24.184Z,83.78
2023-04-01T06:25:24.184Z,84.19
2023-04-01T06:26:24.193Z,84.50
2023-04-01T06:27:24.162Z,84.60
2023-04-01T06:28:24.153Z,84.70
2023-04-01T06:29:24.130Z,84.91
2023-04-01T06:30:24.110Z,84.91
2023-04-01T06:31:24.192Z,84.70
2023-04-01T06:32:24.226Z,84.50
2023-04-01T06:33:24.109Z,84.39
2023-04-01T06:34:24.070Z,84.91
2023-04-01T06:35:24.089Z,85.01
2023-04-01T06:36:24.062Z,84.91
2023-04-01T06:37:24.029Z,85.11
2023-04-01T06:38:24.028Z,85.01
2023-04-01T06:39:24.008Z,85.22
2023-04-01T06:40:23.991Z,85.11
2023-04-01T06:41:23.974Z,85.31
2023-04-01T06:42:23.952Z,85.42
2023-04-01T06:43:24.009Z,85.42
2023-04-01T06:44:23.922Z,85.63
2023-04-01T06:45:23.941Z,85.52
2023-04-01T06:46:24.061Z,85.89
2023-04-01T06:47:23.888Z,86.30
2023-04-01T06:48:23.898Z,86.20
2023-04-01T06:49:23.851Z,85.79
2023-04-01T06:50:23.836Z,85.48
2023-04-01T06:51:23.837Z,85.48
2023-04-01T06:52:23.808Z,85.48
2023-04-01T06:53:23.830Z,85.58
2023-04-01T06:54:23.788Z,85.58
2023-04-01T06:55:23.772Z,85.48
2023-04-01T06:56:23.759Z,85.69
2023-04-01T06:57:23.817Z,85.69
2023-04-01T06:58:23.753Z,85.17
2023-04-01T06:59:23.729Z,85.28
2023-04-01T07:00:23.713Z,85.69
2023-04-01T07:01:23.760Z,86.10
2023-04-01T07:02:23.687Z,86.30
2023-04-01T07:03:23.687Z,86.20
2023-04-01T07:04:23.679Z,85.99
2023-04-01T07:05:23.630Z,86.10
2023-04-01T07:06:23.621Z,86.20
2023-04-01T07:07:23.630Z,86.30
2023-04-01T07:08:23.618Z,86.61
2023-04-01T07:09:23.586Z,86.61
2023-04-01T07:10:23.569Z,86.40
2023-04-01T07:11:23.551Z,86.20
2023-04-01T07:12:23.551Z,85.07
2023-04-01T07:13:23.536Z,85.17
2023-04-01T07:14:23.511Z,85.69
2023-04-01T07:15:23.495Z,85.89
2023-04-01T07:16:23.532Z,86.20
2023-04-01T07:17:23.492Z,86.10
2023-04-01T07:18:23.482Z,85.89
2023-04-01T07:19:23.440Z,86.40
2023-04-01T07:20:23.445Z,89.03
2023-04-01T07:21:23.434Z,89.50
2023-04-01T07:22:23.457Z,88.94
2023-04-01T07:23:23.418Z,86.96
2023-04-01T07:24:23.411Z,83.79
2023-04-01T07:25:23.351Z,82.97
2023-04-01T07:26:23.347Z,82.87
2023-04-01T07:27:23.337Z,82.77
2023-04-01T07:28:23.320Z,82.91
2023-04-01T07:29:23.324Z,83.22
2023-04-01T07:30:23.288Z,84.65
2023-04-01T07:31:23.309Z,84.55
2023-04-01T07:32:23.450Z,84.44
2023-04-01T07:33:23.246Z,84.55
2023-04-01T07:34:23.261Z,84.85
2023-04-01T07:35:23.217Z,85.10
2023-04-01T07:36:23.252Z,84.69
2023-04-01T07:37:23.208Z,84.69
2023-04-01T07:38:23.304Z,84.79
2023-04-01T07:39:23.189Z,84.99
2023-04-01T07:40:23.171Z,85.20
2023-04-01T07:41:23.152Z,85.61
2023-04-01T07:42:23.144Z,86.02
2023-04-01T07:43:23.133Z,86.02
2023-04-01T07:44:23.135Z,86.02
2023-04-01T07:45:23.111Z,86.32
2023-04-01T07:46:23.181Z,86.43
2023-04-01T07:47:23.133Z,86.12
2023-04-01T07:48:23.067Z,86.12
2023-04-01T07:49:23.073Z,86.32
2023-04-01T07:50:23.047Z,86.32
2023-04-01T07:51:23.199Z,85.91
2023-04-01T07:52:23.012Z,85.40
2023-04-01T07:53:22.992Z,85.40
2023-04-01T07:54:23.004Z,85.61
2023-04-01T07:55:22.965Z,85.91
2023-04-01T07:56:22.959Z,85.40
2023-04-01T07:57:23.070Z,85.40
2023-04-01T07:58:22.927Z,84.79
2023-04-01T07:59:22.926Z,84.79
2023-04-01T08:00:22.918Z,84.99
2023-04-01T08:01:22.871Z,85.30
2023-04-01T08:02:23.098Z,85.50
2023-04-01T08:03:22.944Z,85.71
2023-04-01T08:04:22.941Z,85.91
2023-04-01T08:05:22.829Z,85.91
2023-04-01T08:06:22.826Z,86.12
2023-04-01T08:07:22.810Z,85.20
2023-04-01T08:08:22.802Z,85.20
2023-04-01T08:09:22.792Z,85.20
2023-04-01T08:10:22.770Z,85.40
2023-04-01T08:11:22.763Z,85.50
2023-04-01T08:12:22.746Z,84.89
2023-04-01T08:13:22.716Z,84.89
2023-04-01T08:14:22.742Z,84.99
2023-04-01T08:15:22.687Z,84.89
2023-04-01T08:16:22.766Z,85.20
2023-04-01T08:17:22.831Z,85.50
2023-04-01T08:18:22.651Z,85.91
2023-04-01T08:19:22.663Z,85.91
2023-04-01T08:20:22.652Z,85.20
2023-04-01T08:21:22.604Z,85.30
2023-04-01T08:22:22.601Z,85.30
2023-04-01T08:23:22.614Z,85.10
2023-04-01T08:24:22.911Z,85.26
2023-04-01T08:25:22.574Z,85.36
2023-04-01T08:26:22.575Z,85.06
2023-04-01T08:27:22.541Z,84.95
2023-04-01T08:28:22.540Z,85.06
2023-04-01T08:29:22.541Z,87.88
2023-04-01T08:30:22.535Z,88.04
2023-04-01T08:31:22.492Z,86.30
2023-04-01T08:32:22.514Z,84.22
2023-04-01T08:33:22.443Z,82.73
2023-04-01T08:34:22.477Z,82.73
2023-04-01T08:35:22.411Z,83.75
2023-04-01T08:36:22.493Z,82.83
2023-04-01T08:37:22.473Z,82.87
2023-04-01T08:38:22.392Z,83.48
2023-04-01T08:39:22.392Z,85.12
2023-04-01T08:40:22.365Z,84.20
2023-04-01T08:41:22.355Z,83.18
2023-04-01T08:42:22.338Z,82.36
2023-04-01T08:43:22.327Z,83.38
2023-04-01T08:44:22.312Z,83.79
2023-04-01T08:45:22.283Z,83.79
2023-04-01T08:46:22.347Z,83.59
2023-04-01T08:47:22.256Z,83.79
2023-04-01T08:48:22.262Z,83.59
2023-04-01T08:49:22.239Z,83.59
2023-04-01T08:50:22.280Z,83.89
2023-04-01T08:51:22.207Z,83.18
2023-04-01T08:52:22.207Z,83.69
2023-04-01T08:53:22.189Z,83.79
2023-04-01T08:54:22.199Z,83.48
2023-04-01T08:55:22.755Z,83.69
2023-04-01T08:56:22.150Z,83.48
2023-04-01T08:57:22.149Z,83.38
2023-04-01T08:58:22.151Z,83.59
2023-04-01T08:59:22.134Z,83.89
2023-04-01T09:00:22.093Z,83.79
2023-04-01T09:01:22.139Z,84.20
2023-04-01T09:02:22.164Z,84.41
2023-04-01T09:03:22.165Z,84.06
2023-04-01T09:04:22.071Z,83.18
2023-04-01T09:05:22.057Z,83.38
2023-04-01T09:06:22.077Z,83.59
2023-04-01T09:07:21.993Z,83.59
2023-04-01T09:08:21.982Z,84.00
2023-04-01T09:09:21.986Z,83.59
2023-04-01T09:10:21.977Z,84.20
2023-04-01T09:11:21.987Z,83.93
2023-04-01T09:12:21.935Z,83.83
2023-04-01T09:13:21.969Z,84.34
2023-04-01T09:14:21.906Z,84.55
2023-04-01T09:15:21.905Z,84.24
2023-04-01T09:16:21.953Z,84.65
2023-04-01T09:17:21.860Z,86.14
2023-04-01T09:18:21.853Z,85.22
2023-04-01T09:19:21.843Z,85.02
2023-04-01T09:20:21.840Z,85.22
2023-04-01T09:21:21.812Z,85.02
2023-04-01T09:22:21.793Z,84.50
2023-04-01T09:23:21.779Z,84.81
2023-04-01T09:24:21.797Z,85.22
2023-04-01T09:25:21.779Z,84.91
2023-04-01T09:26:21.766Z,84.71
2023-04-01T09:27:21.759Z,84.30
2023-04-01T09:28:21.724Z,83.89
2023-04-01T09:29:21.712Z,84.00
2023-04-01T09:30:21.780Z,83.89
2023-04-01T09:31:21.743Z,83.89
2023-04-01T09:32:21.715Z,83.89
2023-04-01T09:33:21.662Z,84.61
2023-04-01T09:34:21.649Z,84.41
2023-04-01T09:35:21.661Z,84.00
2023-04-01T09:36:21.652Z,83.89
2023-04-01T09:37:21.654Z,88.96
2023-04-01T09:38:21.601Z,87.55
2023-04-01T09:39:21.605Z,84.28
2023-04-01T09:40:21.591Z,83.98
2023-04-01T09:41:21.723Z,84.34
2023-04-01T09:42:21.533Z,81.96
2023-04-01T09:43:21.535Z,81.56
2023-04-01T09:44:21.513Z,81.35
2023-04-01T09:45:21.515Z,81.70
2023-04-01T09:46:21.510Z,81.49
2023-04-01T09:47:21.478Z,84.25
2023-04-01T09:48:21.456Z,83.49
2023-04-01T09:49:21.445Z,81.39
2023-04-01T09:50:21.450Z,80.47
2023-04-01T09:51:21.413Z,81.23
2023-04-01T09:52:21.406Z,81.94
2023-04-01T09:53:21.396Z,81.94
2023-04-01T09:54:21.374Z,82.35
2023-04-01T09:55:21.763Z,83.10
2023-04-01T09:56:21.386Z,83.30
2023-04-01T09:57:21.367Z,83.92
2023-04-01T09:58:21.360Z,83.71
2023-04-01T09:59:21.331Z,83.51
2023-04-01T10:00:21.296Z,83.75
2023-04-01T10:01:21.322Z,83.65
2023-04-01T10:02:21.249Z,84.36
2023-04-01T10:03:21.466Z,84.57
2023-04-01T10:04:21.255Z,85.49
2023-04-01T10:05:21.246Z,85.79
2023-04-01T10:06:21.249Z,86.20
2023-04-01T10:07:21.201Z,85.79
2023-04-01T10:08:21.197Z,85.69
2023-04-01T10:09:21.190Z,85.75
2023-04-01T10:10:21.174Z,85.65
2023-04-01T10:11:21.174Z,85.86
2023-04-01T10:12:21.140Z,86.06
2023-04-01T10:13:21.286Z,86.47
2023-04-01T10:14:21.114Z,85.45
2023-04-01T10:15:21.112Z,84.47
2023-04-01T10:16:21.138Z,84.88
2023-04-01T10:17:21.061Z,85.38
2023-04-01T10:18:21.051Z,85.49
2023-04-01T10:19:21.058Z,84.67
2023-04-01T10:20:21.054Z,84.16
2023-04-01T10:21:21.015Z,84.98
2023-04-01T10:22:21.017Z,84.98
2023-04-01T10:23:21.135Z,85.38
2023-04-01T10:24:20.978Z,86.20
2023-04-01T10:25:21.053Z,85.49
2023-04-01T10:26:20.957Z,85.59
2023-04-01T10:27:20.937Z,86.10
2023-04-01T10:28:20.945Z,85.59
2023-04-01T10:29:20.922Z,85.18
2023-04-01T10:30:20.986Z,85.38
2023-04-01T10:31:20.940Z,85.38
2023-04-01T10:32:20.928Z,85.69
2023-04-01T10:33:20.850Z,85.49
2023-04-01T10:34:20.865Z,85.28
2023-04-01T10:35:20.832Z,85.59
2023-04-01T10:36:20.874Z,85.18
2023-04-01T10:37:20.794Z,85.28
2023-04-01T10:38:20.809Z,85.28
2023-04-01T10:39:20.767Z,85.86
2023-04-01T10:40:20.764Z,86.06
2023-04-01T10:41:20.772Z,86.36
2023-04-01T10:42:20.736Z,85.55
2023-04-01T10:43:20.740Z,85.45
2023-04-01T10:44:20.715Z,84.94
2023-04-01T10:45:20.702Z,84.42
2023-04-01T10:46:20.774Z,84.63
2023-04-01T10:47:20.723Z,84.33
2023-04-01T10:48:20.653Z,84.74
2023-04-01T10:49:20.792Z,84.80
2023-04-01T10:50:20.624Z,84.59
2023-04-01T10:51:20.653Z,84.80
2023-04-01T10:52:20.595Z,84.49
2023-04-01T10:53:20.592Z,84.18
2023-04-01T10:54:20.676Z,83.92
2023-04-01T10:55:20.564Z,83.81
2023-04-01T10:56:20.599Z,83.81
2023-04-01T10:57:20.565Z,84.12
2023-04-01T10:58:20.544Z,84.22
2023-04-01T10:59:20.493Z,84.28
2023-04-01T11:00:20.478Z,84.08
2023-04-01T11:01:20.534Z,84.28
2023-04-01T11:02:20.496Z,84.69
2023-04-01T11:03:20.562Z,83.47
2023-04-01T11:04:20.468Z,84.39
2023-04-01T11:05:21.134Z,83.78
2023-04-01T11:06:20.446Z,83.26
2023-04-01T11:07:20.402Z,83.47
2023-04-01T11:08:20.378Z,83.98
2023-04-01T11:09:20.384Z,84.80
2023-04-01T11:10:20.353Z,84.28
2023-04-01T11:11:20.356Z,84.28
2023-04-01T11:12:20.328Z,84.69
2023-04-01T11:13:20.307Z,84.08
2023-04-01T11:14:20.305Z,83.98
2023-04-01T11:15:20.279Z,83.98
2023-04-01T11:16:20.327Z,84.49
2023-04-01T11:17:20.305Z,83.67
2023-04-01T11:18:20.234Z,83.87
2023-04-01T11:19:20.227Z,83.30
2023-04-01T11:20:20.224Z,83.71
2023-04-01T11:21:20.233Z,83.92
2023-04-01T11:22:20.186Z,83.51
2023-04-01T11:23:20.193Z,84.33
2023-04-01T11:24:20.155Z,85.04
2023-04-01T11:25:20.149Z,84.83
2023-04-01T11:26:20.155Z,84.94
2023-04-01T11:27:20.162Z,84.83
2023-04-01T11:28:20.103Z,84.83
2023-04-01T11:29:20.107Z,84.83
2023-04-01T11:30:20.076Z,85.24
2023-04-01T11:31:20.162Z,85.14
2023-04-01T11:32:20.057Z,85.86
2023-04-01T11:33:20.989Z,86.06
2023-04-01T11:34:20.026Z,85.96
2023-04-01T11:35:20.042Z,85.96
2023-04-01T11:36:20.019Z,85.96
2023-04-01T11:37:19.999Z,86.36
2023-04-01T11:38:19.984Z,86.53
2023-04-01T11:39:20.017Z,86.53
2023-04-01T11:40:20.147Z,86.88
2023-04-01T11:41:19.962Z,86.83
2023-04-01T11:42:19.927Z,87.24
2023-04-01T11:43:32.487Z,87.24
2023-04-01T11:44:20.926Z,87.29
2023-04-01T11:45:19.927Z,87.18
2023-04-01T11:46:20.457Z,87.70
2023-04-01T11:47:20.255Z,87.90
2023-04-01T11:48:19.837Z,87.85
2023-04-01T11:49:19.907Z,87.45
2023-04-01T11:50:20.246Z,86.63
2023-04-01T11:51:20.025Z,87.04
2023-04-01T11:52:19.787Z,87.04
2023-04-01T11:53:19.792Z,87.65
2023-04-01T11:54:20.373Z,87.85
2023-04-01T11:55:19.989Z,88.47
2023-04-01T11:56:19.857Z,87.96
2023-04-01T11:57:19.799Z,87.85
2023-04-01T11:58:19.761Z,88.57
2023-04-01T11:59:19.773Z,89.28
2023-04-01T12:00:19.707Z,89.39
2023-04-01T12:01:19.759Z,89.49
2023-04-01T12:02:21.278Z,89.28
2023-04-01T12:03:19.902Z,88.67
2023-04-01T12:04:19.846Z,88.37
2023-04-01T12:05:19.642Z,88.43
2023-04-01T12:06:19.624Z,88.43
2023-04-01T12:07:19.594Z,88.63
2023-04-01T12:08:19.583Z,88.53
2023-04-01T12:09:19.559Z,88.63
2023-04-01T12:10:19.552Z,88.63
2023-04-01T12:11:19.570Z,88.43
2023-04-01T12:12:19.519Z,87.04
2023-04-01T12:13:19.538Z,87.65
2023-04-01T12:14:19.525Z,87.65
2023-04-01T12:15:19.479Z,87.45
2023-04-01T12:16:19.527Z,87.65
2023-04-01T12:17:19.600Z,87.65
2023-04-01T12:18:19.458Z,87.55
2023-04-01T12:19:19.431Z,87.85
2023-04-01T12:20:19.507Z,87.85
2023-04-01T12:21:19.429Z,87.85
2023-04-01T12:22:19.386Z,87.96
2023-04-01T12:23:19.375Z,87.76
2023-04-01T12:24:19.368Z,87.65
2023-04-01T12:25:19.342Z,87.51
2023-04-01T12:26:19.355Z,87.92
2023-04-01T12:27:19.317Z,88.12
2023-04-01T12:28:19.309Z,88.02
2023-04-01T12:29:19.295Z,88.02
2023-04-01T12:30:19.279Z,87.61
2023-04-01T12:31:19.262Z,86.80
2023-04-01T12:32:19.288Z,86.35
2023-04-01T12:33:19.272Z,86.86
2023-04-01T12:34:19.258Z,86.76
2023-04-01T12:35:19.274Z,86.96
2023-04-01T12:36:19.212Z,87.02
2023-04-01T12:37:19.237Z,86.51
2023-04-01T12:38:20.393Z,85.60
2023-04-01T12:39:19.164Z,86.41
2023-04-01T12:40:19.156Z,87.02
2023-04-01T12:41:19.163Z,87.02
2023-04-01T12:42:19.133Z,87.29
2023-04-01T12:43:19.112Z,86.51
2023-04-01T12:44:19.089Z,85.86
2023-04-01T12:45:19.215Z,85.60
2023-04-01T12:46:19.100Z,86.47
2023-04-01T12:47:19.078Z,85.96
2023-04-01T12:48:19.035Z,85.35
2023-04-01T12:49:19.066Z,84.67
2023-04-01T12:50:19.006Z,85.19
2023-04-01T12:51:19.006Z,84.12
2023-04-01T12:52:18.994Z,84.23